createdAt,value
2023-05-11T00:00:37.524Z,8.30
2023-05-11T00:03:04.160Z,9.50
2023-05-11T00:05:30.822Z,12.90
2023-05-11T00:07:57.252Z,11.10
2023-05-11T00:10:23.865Z,9.40
2023-05-11T00:12:50.352Z,18.70
2023-05-11T00:15:16.764Z,14.10
2023-05-11T00:17:44.697Z,13.00
2023-05-11T00:20:11.305Z,18.00
2023-05-11T00:22:38.610Z,16.80
2023-05-11T00:25:06.164Z,14.70
2023-05-11T00:27:32.978Z,13.30
2023-05-11T00:29:59.622Z,22.50
2023-05-11T00:32:26.159Z,14.50
2023-05-11T00:34:52.669Z,13.80
2023-05-11T00:37:19.181Z,16.00
2023-05-11T00:39:45.693Z,16.50
2023-05-11T00:42:12.261Z,14.40
2023-05-11T00:44:38.834Z,12.00
2023-05-11T00:47:05.666Z,14.10
2023-05-11T00:49:32.413Z,10.70
2023-05-11T00:52:02.285Z,10.80
2023-05-11T00:54:30.196Z,11.40
2023-05-11T00:56:56.938Z,16.50
2023-05-11T00:59:23.594Z,9.40
2023-05-11T01:01:50.206Z,13.70
2023-05-11T01:04:16.838Z,12.50
2023-05-11T01:06:55.287Z,10.10
2023-05-11T01:09:37.453Z,13.00
2023-05-11T01:12:14.710Z,10.30
2023-05-11T01:14:48.812Z,7.60
2023-05-11T01:17:19.908Z,9.50
2023-05-11T01:19:50.280Z,13.40
2023-05-11T01:22:25.737Z,15.20
2023-05-11T01:25:14.333Z,11.00
2023-05-11T01:27:51.093Z,8.70
2023-05-11T01:30:25.844Z,14.30
2023-05-11T01:32:55.210Z,14.50
2023-05-11T01:35:23.059Z,11.30
2023-05-11T01:37:51.548Z,9.20
2023-05-11T01:40:27.032Z,13.60
2023-05-11T01:43:01.698Z,11.50
2023-05-11T01:45:28.860Z,12.00
2023-05-11T01:47:55.390Z,8.70
2023-05-11T01:50:22.449Z,13.10
2023-05-11T01:52:49.007Z,15.00
2023-05-11T01:55:17.271Z,11.30
2023-05-11T01:57:43.705Z,6.50
2023-05-11T02:00:10.633Z,10.80
2023-05-11T02:02:41.844Z,9.40
2023-05-11T02:05:08.465Z,12.20
2023-05-11T02:07:35.778Z,10.40
2023-05-11T02:10:02.339Z,11.20
2023-05-11T02:12:30.275Z,10.40
2023-05-11T02:14:57.002Z,7.50
2023-05-11T02:17:23.469Z,13.30
2023-05-11T02:19:50.447Z,9.20
2023-05-11T02:22:17.219Z,13.90
2023-05-11T02:24:43.713Z,12.70
2023-05-11T02:27:12.333Z,9.50
2023-05-11T02:29:39.238Z,10.30
2023-05-11T02:32:07.257Z,11.60
2023-05-11T02:34:45.976Z,12.40
2023-05-11T02:37:13.552Z,8.10
2023-05-11T02:39:40.924Z,12.90
2023-05-11T02:42:13.576Z,9.10
2023-05-11T02:44:44.012Z,11.50
2023-05-11T02:47:11.920Z,9.80
2023-05-11T02:49:38.923Z,9.00
2023-05-11T02:52:07.014Z,7.10
2023-05-11T02:54:34.791Z,10.60
2023-05-11T02:57:01.349Z,9.90
2023-05-11T02:59:27.966Z,9.60
2023-05-11T03:01:54.550Z,11.50
2023-05-11T03:04:21.884Z,8.90
2023-05-11T03:06:48.377Z,6.60
2023-05-11T03:09:15.271Z,6.20
2023-05-11T03:11:44.918Z,10.00
2023-05-11T03:14:11.805Z,10.00
2023-05-11T03:16:38.340Z,6.90
2023-05-11T03:19:05.767Z,9.50
2023-05-11T03:21:33.706Z,7.20
2023-05-11T03:24:00.182Z,6.80
2023-05-11T03:26:26.986Z,9.20
2023-05-11T03:28:53.454Z,9.40
2023-05-11T03:31:19.888Z,14.20
2023-05-11T03:33:46.739Z,10.40
2023-05-11T03:36:13.724Z,11.10
2023-05-11T03:38:40.546Z,9.20
2023-05-11T03:41:10.044Z,9.90
2023-05-11T03:43:36.969Z,8.90
2023-05-11T03:46:03.677Z,12.20
2023-05-11T03:49:53.455Z,8.30
2023-05-11T03:52:20.243Z,6.40
2023-05-11T03:54:46.895Z,8.20
2023-05-11T03:57:14.506Z,9.30
2023-05-11T03:59:41.209Z,9.30
2023-05-11T04:02:08.652Z,7.60
2023-05-11T04:04:37.955Z,11.50
2023-05-11T04:07:04.689Z,10.90
2023-05-11T04:09:31.522Z,12.10
2023-05-11T04:11:58.258Z,10.10
2023-05-11T04:14:24.997Z,12.70
2023-05-11T04:16:51.630Z,9.50
2023-05-11T04:19:18.392Z,9.90
2023-05-11T04:21:46.456Z,11.90
2023-05-11T04:24:13.288Z,8.70
2023-05-11T04:26:39.932Z,4.70
2023-05-11T04:29:06.653Z,8.80
2023-05-11T04:31:33.999Z,5.30
2023-05-11T04:34:02.667Z,5.00
2023-05-11T04:36:30.035Z,7.50
2023-05-11T04:38:56.959Z,3.60
2023-05-11T04:41:24.153Z,4.90
2023-05-11T04:43:51.592Z,3.60
2023-05-11T04:46:18.455Z,3.70
2023-05-11T04:48:45.408Z,4.10
2023-05-11T04:51:12.518Z,8.00
2023-05-11T04:53:42.492Z,7.10
2023-05-11T04:56:09.508Z,5.90
2023-05-11T04:58:36.542Z,7.30
2023-05-11T05:01:04.152Z,7.80
2023-05-11T05:05:57.557Z,12.00
2023-05-11T05:08:24.224Z,12.70
2023-05-11T05:10:50.900Z,10.70
2023-05-11T05:13:17.870Z,12.80
2023-05-11T05:15:44.666Z,13.00
2023-05-11T05:18:11.880Z,10.60
2023-05-11T05:20:39.833Z,11.30
2023-05-11T05:23:06.543Z,9.50
2023-05-11T05:25:33.904Z,7.80
2023-05-11T05:28:00.774Z,10.10
2023-05-11T05:30:27.829Z,6.50
2023-05-11T05:32:55.150Z,6.50
2023-05-11T05:35:23.496Z,4.90
2023-05-11T05:37:50.300Z,4.60
2023-05-11T05:40:17.466Z,4.70
2023-05-11T05:42:50.888Z,4.90
2023-05-11T05:45:20.912Z,6.30
2023-05-11T05:47:49.220Z,3.60
2023-05-11T05:50:16.568Z,1.30
2023-05-11T05:52:43.760Z,1.10
2023-05-11T05:55:11.183Z,0.80
2023-05-11T05:57:38.885Z,3.40
2023-05-11T06:00:06.662Z,1.10
2023-05-11T06:02:39.636Z,4.50
2023-05-11T06:05:08.233Z,4.00
2023-05-11T06:07:34.936Z,5.30
2023-05-11T06:10:02.477Z,2.20
2023-05-11T06:12:29.990Z,3.50
2023-05-11T06:14:57.427Z,0.70
2023-05-11T06:17:24.576Z,0.80
2023-05-11T06:19:51.503Z,2.80
2023-05-11T06:22:19.730Z,0.60
2023-05-11T06:24:47.405Z,1.60
2023-05-11T06:27:17.359Z,0.90
2023-05-11T06:29:45.145Z,0.90
2023-05-11T06:32:11.982Z,1.10
2023-05-11T06:34:39.492Z,1.70
2023-05-11T06:37:06.689Z,3.00
2023-05-11T06:39:37.693Z,2.10
2023-05-11T06:42:06.867Z,2.60
2023-05-11T06:44:34.524Z,3.90
2023-05-11T06:47:01.265Z,1.40
2023-05-11T06:49:27.999Z,2.40
2023-05-11T06:51:54.651Z,1.00
2023-05-11T06:54:22.310Z,1.30
2023-05-11T06:56:48.992Z,4.10
2023-05-11T06:59:15.633Z,1.50
2023-05-11T07:01:42.376Z,2.10
2023-05-11T07:04:09.284Z,0.70
2023-05-11T07:06:36.178Z,2.80
2023-05-11T07:09:03.868Z,0.90
2023-05-11T07:11:31.032Z,3.60
2023-05-11T07:13:57.743Z,1.40
2023-05-11T07:16:24.473Z,1.60
2023-05-11T07:18:51.173Z,4.50
2023-05-11T07:21:17.942Z,3.80
2023-05-11T07:23:44.762Z,1.30
2023-05-11T07:26:11.456Z,2.60
2023-05-11T07:28:38.248Z,1.40
2023-05-11T07:31:05.271Z,0.80
2023-05-11T07:33:33.562Z,1.90
2023-05-11T07:36:00.422Z,2.70
2023-05-11T07:38:27.132Z,1.10
2023-05-11T07:40:53.849Z,0.70
2023-05-11T07:43:20.561Z,0.50
2023-05-11T07:45:47.252Z,0.40
2023-05-11T07:48:13.973Z,2.90
2023-05-11T07:50:42.430Z,1.20
2023-05-11T07:53:09.323Z,1.50
2023-05-11T07:55:36.152Z,1.40
2023-05-11T07:58:02.787Z,2.50
2023-05-11T08:00:29.451Z,2.80
2023-05-11T08:02:56.891Z,2.70
2023-05-11T08:05:23.890Z,2.70
2023-05-11T08:07:50.612Z,1.20
2023-05-11T08:10:17.306Z,1.50
2023-05-11T08:12:43.980Z,0.90
2023-05-11T08:15:11.307Z,2.00
2023-05-11T08:17:38.017Z,0.70
2023-05-11T08:20:06.761Z,1.60
2023-05-11T08:22:33.629Z,0.50
2023-05-11T08:25:00.804Z,0.80
2023-05-11T08:27:27.505Z,0.70
2023-05-11T08:29:55.074Z,0.40
2023-05-11T08:32:21.886Z,1.50
2023-05-11T08:34:48.858Z,0.40
2023-05-11T08:37:15.730Z,4.00
2023-05-11T08:42:13.948Z,1.40
2023-05-11T08:44:40.906Z,0.80
2023-05-11T08:47:21.903Z,0.70
2023-05-11T08:49:51.832Z,0.50
2023-05-11T08:52:18.562Z,0.50
2023-05-11T08:54:46.300Z,3.80
2023-05-11T08:57:13.865Z,0.30
2023-05-11T08:59:44.718Z,0.80
2023-05-11T09:02:14.608Z,0.40
2023-05-11T09:04:41.625Z,0.50
2023-05-11T09:07:09.752Z,1.20
2023-05-11T09:09:36.402Z,0.80
2023-05-11T09:12:03.963Z,0.40
2023-05-11T09:14:30.605Z,0.50
2023-05-11T09:16:58.939Z,1.70
2023-05-11T09:19:25.778Z,2.00
2023-05-11T09:21:53.147Z,3.30
2023-05-11T09:24:20.476Z,0.80
2023-05-11T09:26:47.264Z,0.40
2023-05-11T09:29:14.186Z,3.30
2023-05-11T09:31:45.582Z,2.90
2023-05-11T09:34:22.544Z,0.50
2023-05-11T09:36:56.916Z,0.50
2023-05-11T09:39:44.588Z,2.10
2023-05-11T09:42:22.815Z,0.70
2023-05-11T09:44:49.469Z,0.40
2023-05-11T09:47:20.339Z,0.80
2023-05-11T09:49:47.783Z,0.80
2023-05-11T09:52:18.628Z,3.60
2023-05-11T09:54:47.143Z,1.90
2023-05-11T09:57:27.510Z,0.70
2023-05-11T09:59:54.599Z,0.70
2023-05-11T10:02:26.227Z,0.80
2023-05-11T10:04:54.425Z,1.40
2023-05-11T10:07:30.915Z,0.30
2023-05-11T10:09:59.089Z,0.50
2023-05-11T10:12:26.178Z,0.70
2023-05-11T10:15:14.545Z,3.50
2023-05-11T10:17:44.585Z,1.80
2023-05-11T10:20:11.623Z,0.50
2023-05-11T10:22:38.356Z,0.70
2023-05-11T10:25:06.504Z,1.10
2023-05-11T10:27:33.247Z,3.40
2023-05-11T10:29:59.924Z,1.20
2023-05-11T10:32:27.628Z,0.50
2023-05-11T10:34:54.412Z,0.40
2023-05-11T10:37:21.275Z,0.40
2023-05-11T10:39:50.265Z,5.00
2023-05-11T10:42:49.464Z,0.40
2023-05-11T10:45:41.804Z,0.40
2023-05-11T10:48:11.420Z,2.20
2023-05-11T10:50:47.603Z,0.90
2023-05-11T10:53:37.707Z,1.00
2023-05-11T10:56:40.644Z,3.70
2023-05-11T10:59:16.611Z,0.90
2023-05-11T11:01:43.711Z,1.00
2023-05-11T11:04:11.876Z,2.40
2023-05-11T11:06:40.391Z,0.70
2023-05-11T11:09:13.072Z,0.70
2023-05-11T11:11:41.105Z,1.90
2023-05-11T11:14:09.688Z,0.80
2023-05-11T11:16:37.408Z,1.40
2023-05-11T11:19:32.849Z,1.50
2023-05-11T11:22:00.441Z,1.60
2023-05-11T11:24:53.675Z,2.20
2023-05-11T11:27:21.366Z,1.40
2023-05-11T11:30:20.265Z,2.20
2023-05-11T11:32:48.410Z,0.50
2023-05-11T11:35:43.585Z,0.50
2023-05-11T11:38:11.948Z,2.30
2023-05-11T11:40:50.065Z,1.90
2023-05-11T11:43:22.060Z,1.20
2023-05-11T11:46:01.601Z,0.40
2023-05-11T11:48:38.931Z,0.70
2023-05-11T11:51:05.664Z,0.70
2023-05-11T11:53:41.012Z,0.70
2023-05-11T11:56:09.159Z,1.70
2023-05-11T11:58:45.243Z,0.50
2023-05-11T12:01:12.992Z,3.20
2023-05-11T12:03:41.515Z,1.30
2023-05-11T12:06:09.538Z,0.60
2023-05-11T12:08:37.138Z,4.20
2023-05-11T12:11:04.531Z,4.30
2023-05-11T12:13:32.172Z,0.90
2023-05-11T12:16:18.875Z,6.50
2023-05-11T12:18:59.183Z,1.80
2023-05-11T12:21:29.122Z,1.60
2023-05-11T12:23:57.383Z,2.10
2023-05-11T12:26:24.925Z,0.50
2023-05-11T12:28:51.959Z,0.40
2023-05-11T12:31:18.769Z,2.10
2023-05-11T12:33:49.698Z,1.80
2023-05-11T12:36:16.855Z,0.40
2023-05-11T12:38:47.157Z,0.70
2023-05-11T12:41:23.679Z,1.80
2023-05-11T12:43:50.817Z,2.70
2023-05-11T12:46:18.028Z,0.60
2023-05-11T12:48:46.025Z,1.00
2023-05-11T12:51:12.781Z,2.00
2023-05-11T12:53:39.911Z,1.30
2023-05-11T12:56:07.057Z,1.30
2023-05-11T12:58:40.446Z,1.80
2023-05-11T13:01:09.049Z,0.90
2023-05-11T13:03:36.576Z,2.50
2023-05-11T13:06:13.111Z,0.80
2023-05-11T13:08:44.812Z,0.50
2023-05-11T13:11:26.826Z,1.50
2023-05-11T13:13:54.931Z,2.80
2023-05-11T13:16:29.146Z,2.20
2023-05-11T13:18:59.815Z,0.80
2023-05-11T13:21:26.998Z,3.10
2023-05-11T13:23:54.471Z,2.00
2023-05-11T13:26:29.184Z,0.60
2023-05-11T13:29:09.607Z,1.60
2023-05-11T13:31:51.095Z,1.30
2023-05-11T13:34:18.846Z,1.30
2023-05-11T13:36:46.018Z,0.50
2023-05-11T13:39:12.731Z,3.40
2023-05-11T13:41:39.382Z,1.30
2023-05-11T13:44:06.193Z,0.50
2023-05-11T13:46:32.841Z,2.30
2023-05-11T13:49:00.479Z,0.50
2023-05-11T13:51:27.790Z,0.50
2023-05-11T13:53:54.600Z,1.10
2023-05-11T13:56:22.297Z,0.60
2023-05-11T13:58:49.151Z,0.40
2023-05-11T14:01:16.542Z,1.90
2023-05-11T14:03:43.424Z,0.60
2023-05-11T14:06:10.278Z,6.30
2023-05-11T14:08:36.941Z,2.30
2023-05-11T14:11:03.664Z,0.70
2023-05-11T14:13:30.466Z,0.90
2023-05-11T14:15:57.219Z,1.20
2023-05-11T14:18:26.045Z,0.50
2023-05-11T14:20:53.920Z,1.40
2023-05-11T14:23:20.696Z,1.10
2023-05-11T14:25:47.313Z,0.60
2023-05-11T14:28:14.027Z,1.20
2023-05-11T14:30:40.839Z,0.50
2023-05-11T14:33:07.862Z,0.90
2023-05-11T14:35:36.474Z,0.60
2023-05-11T14:38:04.671Z,0.70
2023-05-11T14:40:31.556Z,0.70
2023-05-11T14:42:58.267Z,4.20
2023-05-11T14:45:25.020Z,1.40
2023-05-11T14:47:51.783Z,2.80
2023-05-11T14:50:18.570Z,2.80
2023-05-11T14:52:45.326Z,1.10
2023-05-11T14:55:12.143Z,3.80
2023-05-11T14:57:39.561Z,0.80
2023-05-11T15:00:07.055Z,0.40
2023-05-11T15:02:33.803Z,0.40
2023-05-11T15:05:00.792Z,2.30
2023-05-11T15:07:27.442Z,1.70
2023-05-11T15:09:54.249Z,3.60
2023-05-11T15:12:21.019Z,2.80
2023-05-11T15:14:47.682Z,0.70
2023-05-11T15:17:14.339Z,0.90
2023-05-11T15:19:41.073Z,1.00
2023-05-11T15:22:07.763Z,0.50
2023-05-11T15:24:34.392Z,0.50
2023-05-11T15:27:01.097Z,0.40
2023-05-11T15:29:27.850Z,0.40
2023-05-11T15:31:54.548Z,2.60
2023-05-11T15:34:21.352Z,0.80
2023-05-11T15:36:49.762Z,6.70
2023-05-11T15:39:17.708Z,0.70
2023-05-11T15:41:44.438Z,1.10
2023-05-11T15:44:11.549Z,1.30
2023-05-11T15:46:38.627Z,1.90
2023-05-11T15:49:06.173Z,1.20
2023-05-11T15:51:33.309Z,1.30
2023-05-11T15:54:00.032Z,0.50
2023-05-11T15:56:27.057Z,1.00
2023-05-11T15:58:53.915Z,0.50
2023-05-11T16:01:21.345Z,1.10
2023-05-11T16:06:45.935Z,1.20
2023-05-11T16:09:12.615Z,1.70
2023-05-11T16:11:39.676Z,0.70
2023-05-11T16:14:06.331Z,3.20
2023-05-11T16:16:33.153Z,1.40
2023-05-11T16:19:00.188Z,1.20
2023-05-11T16:21:27.280Z,2.10
2023-05-11T16:23:54.398Z,2.40
2023-05-11T16:26:21.264Z,0.60
2023-05-11T16:28:47.915Z,1.60
2023-05-11T16:31:15.431Z,0.60
2023-05-11T16:33:42.335Z,1.30
2023-05-11T16:36:09.035Z,5.20
2023-05-11T16:38:35.946Z,0.70
2023-05-11T16:41:02.689Z,0.60
2023-05-11T16:43:29.425Z,0.70
2023-05-11T16:45:56.204Z,0.50
2023-05-11T16:48:22.869Z,1.00
2023-05-11T16:50:49.867Z,0.70
2023-05-11T16:53:17.668Z,0.40
2023-05-11T16:55:44.356Z,0.40
2023-05-11T16:58:11.144Z,3.50
2023-05-11T17:00:37.955Z,1.10
2023-05-11T17:03:04.678Z,0.70
2023-05-11T17:05:31.564Z,0.70
2023-05-11T17:07:58.435Z,2.40
2023-05-11T17:10:25.384Z,0.80
2023-05-11T17:12:52.239Z,5.10
2023-05-11T17:15:19.099Z,0.70
2023-05-11T17:17:45.806Z,2.50
2023-05-11T17:20:13.086Z,0.60
2023-05-11T17:22:39.800Z,0.70
2023-05-11T17:25:07.348Z,1.30
2023-05-11T17:27:40.033Z,2.70
2023-05-11T17:30:07.428Z,3.40
2023-05-11T17:32:34.425Z,3.60
2023-05-11T17:35:01.605Z,2.60
2023-05-11T17:37:32.280Z,4.00
2023-05-11T17:40:01.119Z,2.60
2023-05-11T17:42:28.557Z,1.20
2023-05-11T17:44:55.749Z,2.40
2023-05-11T17:47:22.527Z,4.20
2023-05-11T17:49:49.331Z,8.80
2023-05-11T17:52:16.060Z,7.40
2023-05-11T17:54:42.822Z,10.50
2023-05-11T17:57:09.486Z,9.10
2023-05-11T17:59:36.169Z,4.10
2023-05-11T18:02:03.378Z,7.00
2023-05-11T18:04:30.074Z,9.70
2023-05-11T18:06:57.376Z,6.20
2023-05-11T18:09:24.257Z,6.90
2023-05-11T18:11:50.944Z,8.40
2023-05-11T18:14:18.014Z,13.60
2023-05-11T18:16:44.766Z,8.70
2023-05-11T18:19:11.551Z,3.90
2023-05-11T18:21:38.459Z,7.70
2023-05-11T18:24:06.237Z,10.10
2023-05-11T18:26:32.927Z,6.30
2023-05-11T18:28:59.728Z,2.10
2023-05-11T18:31:27.868Z,7.40
2023-05-11T18:33:55.549Z,3.30
2023-05-11T18:36:22.403Z,1.90
2023-05-11T18:38:49.190Z,4.90
2023-05-11T18:41:15.897Z,8.70
2023-05-11T18:43:43.873Z,1.20
2023-05-11T18:46:10.946Z,3.40
2023-05-11T18:48:39.009Z,3.50
2023-05-11T18:51:06.016Z,8.20
2023-05-11T18:53:33.533Z,2.00
2023-05-11T18:56:00.280Z,6.10
2023-05-11T18:58:27.155Z,4.20
2023-05-11T19:00:53.912Z,3.60
2023-05-11T19:03:22.012Z,4.00
2023-05-11T19:05:49.546Z,2.00
2023-05-11T19:08:16.673Z,6.80
2023-05-11T19:10:45.346Z,4.80
2023-05-11T19:13:13.350Z,3.20
2023-05-11T19:15:40.374Z,2.40
2023-05-11T19:18:07.247Z,4.20
2023-05-11T19:20:34.365Z,2.60
2023-05-11T19:23:01.133Z,2.30
2023-05-11T19:25:28.479Z,3.00
2023-05-11T19:27:57.179Z,1.80
2023-05-11T19:30:24.817Z,2.10
2023-05-11T19:32:51.541Z,3.00
2023-05-11T19:35:19.196Z,1.20
2023-05-11T19:37:50.570Z,0.90
2023-05-11T19:42:49.595Z,2.40
2023-05-11T19:45:17.170Z,2.50
2023-05-11T19:47:44.660Z,1.30
2023-05-11T19:50:12.446Z,1.30
2023-05-11T19:52:39.090Z,3.00
2023-05-11T19:55:06.354Z,3.30
2023-05-11T19:57:37.296Z,3.00
2023-05-11T20:00:09.691Z,5.00
2023-05-11T20:02:36.629Z,2.40
2023-05-11T20:05:04.362Z,6.80
2023-05-11T20:07:31.972Z,4.30
2023-05-11T20:09:58.687Z,3.60
2023-05-11T20:12:25.624Z,7.40
2023-05-11T20:14:52.750Z,4.00
2023-05-11T20:17:19.426Z,6.00
2023-05-11T20:19:46.526Z,9.20
2023-05-11T20:22:13.553Z,6.90
2023-05-11T20:24:40.189Z,2.60
2023-05-11T20:27:09.645Z,4.90
2023-05-11T20:29:36.644Z,2.00
2023-05-11T20:32:03.593Z,2.00
2023-05-11T20:34:30.372Z,2.00
2023-05-11T20:36:57.101Z,1.50
2023-05-11T20:39:23.868Z,1.80
2023-05-11T20:41:50.595Z,3.70
2023-05-11T20:44:17.649Z,4.20
2023-05-11T20:46:46.920Z,2.10
2023-05-11T20:49:22.262Z,2.50
2023-05-11T20:51:51.701Z,1.20
2023-05-11T20:54:18.427Z,2.50
2023-05-11T20:56:45.415Z,6.40
2023-05-11T21:00:03.739Z,1.60
2023-05-11T21:01:59.513Z,2.70
2023-05-11T21:04:26.232Z,4.70
2023-05-11T21:06:56.035Z,2.60
2023-05-11T21:09:22.748Z,0.90
2023-05-11T21:11:49.428Z,1.60
2023-05-11T21:14:16.447Z,2.40
2023-05-11T21:16:43.106Z,1.90
2023-05-11T21:19:09.919Z,5.50
2023-05-11T21:21:36.760Z,1.60
2023-05-11T21:24:04.216Z,2.80
2023-05-11T21:26:30.860Z,4.70
2023-05-11T21:28:57.755Z,3.40
2023-05-11T21:31:24.548Z,4.40
2023-05-11T21:33:52.004Z,1.80
2023-05-11T21:36:18.783Z,1.80
2023-05-11T21:38:45.538Z,3.90
2023-05-11T21:41:12.247Z,5.50
2023-05-11T21:43:38.985Z,2.80
2023-05-11T21:46:06.201Z,4.70
2023-05-11T21:48:32.881Z,4.50
2023-05-11T21:50:59.513Z,6.50
2023-05-11T21:53:26.537Z,3.30
2023-05-11T21:55:53.235Z,6.30
2023-05-11T21:58:19.935Z,3.80
2023-05-11T22:00:46.671Z,3.00
2023-05-11T22:03:13.580Z,3.00
2023-05-11T22:05:40.303Z,5.30
2023-05-11T22:08:14.876Z,3.50
2023-05-11T22:10:43.426Z,3.50
2023-05-11T22:13:10.408Z,3.60
2023-05-11T22:15:37.283Z,3.60
2023-05-11T22:18:05.162Z,5.20
2023-05-11T22:20:32.106Z,2.40
2023-05-11T22:22:59.368Z,2.10
2023-05-11T22:25:26.693Z,2.30
2023-05-11T22:27:53.536Z,2.60
2023-05-11T22:30:20.647Z,3.40
2023-05-11T22:32:47.556Z,4.40
2023-05-11T22:35:14.359Z,2.40
2023-05-11T22:37:41.028Z,3.40
2023-05-11T22:40:08.850Z,3.10
2023-05-11T22:42:35.728Z,3.40
2023-05-11T22:45:02.515Z,1.60
2023-05-11T22:47:29.538Z,4.40
2023-05-11T22:49:56.449Z,1.80
2023-05-11T22:52:23.107Z,3.60
2023-05-11T22:54:54.808Z,3.90
2023-05-11T22:57:24.177Z,3.10
2023-05-11T22:59:50.956Z,7.30
2023-05-11T23:02:17.781Z,5.80
2023-05-11T23:04:49.137Z,9.80
2023-05-11T23:07:16.009Z,21.00
2023-05-11T23:09:42.808Z,5.10
2023-05-11T23:12:09.571Z,14.80
2023-05-11T23:14:36.729Z,7.70
2023-05-11T23:17:03.384Z,8.10
2023-05-11T23:19:30.050Z,8.90
2023-05-11T23:21:57.000Z,8.20
2023-05-11T23:24:23.761Z,11.20
2023-05-11T23:26:50.785Z,8.70
2023-05-11T23:29:17.490Z,5.50
2023-05-11T23:31:44.170Z,3.50
2023-05-11T23:34:10.903Z,24.90
2023-05-11T23:36:38.263Z,2.90
2023-05-11T23:39:05.477Z,2.10
2023-05-11T23:41:32.500Z,2.20
2023-05-11T23:43:59.988Z,3.90
2023-05-11T23:46:26.801Z,2.30
2023-05-11T23:48:53.481Z,1.50
2023-05-11T23:51:20.225Z,3.40
2023-05-11T23:53:46.977Z,4.90
2023-05-11T23:56:13.676Z,2.60
2023-05-11T23:58:41.482Z,3.10
